BAW53M EGLL-MYNN
Flight info
| Callsign | BAW53M |
|---|---|
| Flight time | N/A |
| Altitude | 36000 |
| Route | GASGU N514 ADKIK DCT FONZU DCT LEDGO DCT DINIM/M083F380 DCT 51N020W 50N030W 48N040W 46N050W DCT SUPRY/M083F400 DCT LOMPI N46G CARAC M201 DRYED DCT KINER DCT JNFOX DCT FLUPS DCT MAPYL/N0476F400 G437 ZQA |
| Aircraft | B772/H-SDE2E3FGHIJ5LORVWXY/LB1D1 |
Departure
| Time | 2026-05-08 00:03 |
|---|---|
| Airport | London Heathrow Airport (EGLL) |
Arrival
| Time | N/A |
|---|---|
| Airport | Lynden Pindling International Airport (MYNN) |
| Time | Latitude | Longitude | Altitude | Speed | Heading |
|---|---|---|---|---|---|
| 2026-05-07 23:28 | 51.46913 | -0.48024 | 94 ft | 0 kts | 270° |
| 2026-05-07 23:29 | 51.46916 | -0.48231 | 90 ft | 0 kts | 89° |
| 2026-05-07 23:55 | 51.46916 | -0.48236 | 94 ft | 3 kts | 89° |
| 2026-05-07 23:55 | 51.46915 | -0.48278 | 90 ft | 4 kts | 89° |
| 2026-05-07 23:55 | 51.46915 | -0.48313 | 90 ft | 4 kts | 96° |
| 2026-05-07 23:56 | 51.46923 | -0.48347 | 93 ft | 4 kts | 148° |
| 2026-05-07 23:56 | 51.46946 | -0.48355 | 91 ft | 4 kts | 179° |
| 2026-05-07 23:56 | 51.46967 | -0.48355 | 91 ft | 0 kts | 179° |
| 2026-05-07 23:59 | 51.46966 | -0.48355 | 91 ft | 2 kts | 179° |
| 2026-05-07 23:59 | 51.46921 | -0.48355 | 94 ft | 11 kts | 179° |
| 2026-05-07 23:59 | 51.46818 | -0.48354 | 90 ft | 19 kts | 179° |
| 2026-05-07 23:59 | 51.46747 | -0.48393 | 95 ft | 13 kts | 233° |
| 2026-05-08 00:00 | 51.46740 | -0.48551 | 90 ft | 18 kts | 270° |
| 2026-05-08 00:00 | 51.46739 | -0.48709 | 90 ft | 1 kts | 256° |
| 2026-05-08 00:00 | 51.46714 | -0.48740 | 93 ft | 8 kts | 197° |
| 2026-05-08 00:00 | 51.46637 | -0.48755 | 92 ft | 15 kts | 188° |
| 2026-05-08 00:01 | 51.46514 | -0.48775 | 94 ft | 21 kts | 164° |
| 2026-05-08 00:01 | 51.46474 | -0.48641 | 94 ft | 10 kts | 92° |
| 2026-05-08 00:01 | 51.46475 | -0.48593 | 94 ft | 0 kts | 89° |
| 2026-05-08 00:02 | 51.46475 | -0.48592 | 94 ft | 2 kts | 89° |
| 2026-05-08 00:02 | 51.46478 | -0.48268 | 94 ft | 63 kts | 89° |
| 2026-05-08 00:02 | 51.46481 | -0.47190 | 94 ft | 130 kts | 89° |
| 2026-05-08 00:02 | 51.46486 | -0.45448 | 141 ft | 179 kts | 89° |
| 2026-05-08 00:03 | 51.46516 | -0.43397 | 747 ft | 185 kts | 89° |
| 2026-05-08 00:03 | 51.46460 | -0.41374 | 1655 ft | 180 kts | 109° |
| 2026-05-08 00:03 | 51.45795 | -0.39635 | 2120 ft | 192 kts | 131° |
| 2026-05-08 00:03 | 51.44654 | -0.38412 | 2241 ft | 201 kts | 165° |
| 2026-05-08 00:04 | 51.43163 | -0.38494 | 2429 ft | 232 kts | 193° |
| 2026-05-08 00:04 | 51.41718 | -0.39874 | 2856 ft | 254 kts | 227° |
| 2026-05-08 00:04 | 51.40727 | -0.42268 | 3472 ft | 263 kts | 237° |
| 2026-05-08 00:04 | 51.39791 | -0.44829 | 4274 ft | 267 kts | 237° |
| 2026-05-08 00:05 | 51.38839 | -0.47394 | 5160 ft | 268 kts | 237° |
| 2026-05-08 00:05 | 51.37867 | -0.49952 | 6038 ft | 270 kts | 237° |
| 2026-05-08 00:05 | 51.36872 | -0.52519 | 6859 ft | 272 kts | 238° |
| 2026-05-08 00:05 | 51.35871 | -0.55056 | 7763 ft | 269 kts | 238° |
| 2026-05-08 00:06 | 51.34866 | -0.57566 | 8668 ft | 267 kts | 238° |
| 2026-05-08 00:06 | 51.33859 | -0.60056 | 9572 ft | 266 kts | 238° |
| 2026-05-08 00:06 | 51.32850 | -0.62532 | 10347 ft | 268 kts | 237° |
| 2026-05-08 00:06 | 51.31793 | -0.65116 | 10616 ft | 289 kts | 237° |
| 2026-05-08 00:07 | 51.30647 | -0.67905 | 10798 ft | 312 kts | 237° |
| 2026-05-08 00:07 | 51.29414 | -0.70895 | 11043 ft | 332 kts | 237° |
| 2026-05-08 00:07 | 51.28117 | -0.74030 | 11594 ft | 343 kts | 237° |
| 2026-05-08 00:07 | 51.26784 | -0.77242 | 12293 ft | 350 kts | 236° |
| 2026-05-08 00:08 | 51.25430 | -0.80500 | 13082 ft | 355 kts | 236° |
| 2026-05-08 00:08 | 51.24056 | -0.83800 | 13891 ft | 359 kts | 236° |
| 2026-05-08 00:08 | 51.22663 | -0.87138 | 14582 ft | 363 kts | 236° |
| 2026-05-08 00:08 | 51.21256 | -0.90509 | 15286 ft | 367 kts | 236° |
| 2026-05-08 00:09 | 51.19835 | -0.93908 | 15960 ft | 370 kts | 236° |
| 2026-05-08 00:09 | 51.18400 | -0.97337 | 16652 ft | 373 kts | 236° |
| 2026-05-08 00:09 | 51.16949 | -1.00800 | 17319 ft | 377 kts | 236° |
| 2026-05-08 00:09 | 51.15484 | -1.04290 | 17965 ft | 381 kts | 235° |
| 2026-05-08 00:10 | 51.14004 | -1.07815 | 18551 ft | 385 kts | 235° |
| 2026-05-08 00:10 | 51.12508 | -1.11374 | 19106 ft | 388 kts | 235° |
| 2026-05-08 00:10 | 51.11005 | -1.14947 | 19687 ft | 390 kts | 235° |
| 2026-05-08 00:10 | 51.09484 | -1.18549 | 20246 ft | 393 kts | 235° |
| 2026-05-08 00:11 | 51.07936 | -1.22153 | 20782 ft | 396 kts | 233° |
| 2026-05-08 00:11 | 51.06244 | -1.25616 | 21294 ft | 398 kts | 231° |
| 2026-05-08 00:11 | 51.04511 | -1.29081 | 21801 ft | 402 kts | 231° |
| 2026-05-08 00:11 | 51.02775 | -1.32579 | 22311 ft | 405 kts | 231° |
| 2026-05-08 00:12 | 51.01175 | -1.36280 | 22820 ft | 408 kts | 239° |
| 2026-05-08 00:12 | 50.99902 | -1.40318 | 23335 ft | 412 kts | 245° |
| 2026-05-08 00:12 | 50.98895 | -1.44599 | 23806 ft | 416 kts | 252° |
| 2026-05-08 00:12 | 50.98140 | -1.49055 | 24221 ft | 419 kts | 253° |
| 2026-05-08 00:13 | 50.97395 | -1.53530 | 24655 ft | 421 kts | 253° |
| 2026-05-08 00:13 | 50.96640 | -1.58032 | 25092 ft | 423 kts | 253° |
| 2026-05-08 00:13 | 50.95875 | -1.62544 | 25508 ft | 425 kts | 253° |
| 2026-05-08 00:13 | 50.95097 | -1.67085 | 25913 ft | 428 kts | 253° |
| 2026-05-08 00:14 | 50.94321 | -1.71587 | 26292 ft | 430 kts | 253° |
| 2026-05-08 00:14 | 50.93526 | -1.76175 | 26661 ft | 433 kts | 253° |
| 2026-05-08 00:14 | 50.92723 | -1.80801 | 27038 ft | 436 kts | 253° |
| 2026-05-08 00:14 | 50.91915 | -1.85438 | 27442 ft | 438 kts | 253° |
| 2026-05-08 00:15 | 50.91101 | -1.90106 | 27822 ft | 441 kts | 253° |
| 2026-05-08 00:15 | 50.90281 | -1.94799 | 28183 ft | 444 kts | 252° |
| 2026-05-08 00:15 | 50.89449 | -1.99528 | 28561 ft | 446 kts | 252° |
| 2026-05-08 00:15 | 50.88615 | -2.04273 | 28944 ft | 448 kts | 252° |
| 2026-05-08 00:16 | 50.87778 | -2.09042 | 29309 ft | 450 kts | 252° |
| 2026-05-08 00:16 | 50.86937 | -2.13830 | 29662 ft | 453 kts | 252° |
| 2026-05-08 00:16 | 50.86091 | -2.18638 | 29963 ft | 456 kts | 252° |
| 2026-05-08 00:16 | 50.85237 | -2.23482 | 30221 ft | 458 kts | 252° |
| 2026-05-08 00:17 | 50.84378 | -2.28343 | 30480 ft | 460 kts | 252° |
| 2026-05-08 00:17 | 50.83514 | -2.33226 | 30747 ft | 461 kts | 252° |